Terminal Aerodrome Forecast
Issued by NWS

Home | Current Version | Previous Version | Text Only | Print | Product List | Glossary On
Versions: 1 2 3 4 5 6 7 8 9 10 11 12 13 14 15
000
FTUS45 KTFX 291720
TAFHLN
TAF
KHLN 291720Z 2918/3018 28006KT P6SM FEW040
     FM292100 26008G16KT P6SM SCT040 SCT150
     FM300300 26006KT P6SM SCT080 BKN150
     FM301400 24008KT P6SM VCSH SCT040 BKN080=

USA.gov is the U.S. government's official web portal to all federal, state and local government web resources and services.